createdAt,value
2018-06-22T00:01:34.106Z,22.62
2018-06-22T00:04:01.624Z,22.62
2018-06-22T00:06:29.080Z,22.59
2018-06-22T00:08:56.765Z,22.56
2018-06-22T00:11:24.267Z,22.50
2018-06-22T00:13:51.785Z,22.48
2018-06-22T00:16:19.246Z,22.47
2018-06-22T00:18:46.701Z,22.40
2018-06-22T00:21:14.172Z,22.34
2018-06-22T00:23:41.606Z,22.30
2018-06-22T00:26:09.068Z,22.22
2018-06-22T00:28:36.546Z,22.22
2018-06-22T00:31:04.004Z,22.24
2018-06-22T00:33:31.513Z,22.24
2018-06-22T00:35:58.955Z,22.15
2018-06-22T00:38:26.458Z,22.19
2018-06-22T00:40:54.485Z,22.09
2018-06-22T00:43:21.944Z,22.07
2018-06-22T00:45:49.406Z,22.15
2018-06-22T00:48:16.842Z,22.15
2018-06-22T00:50:44.298Z,22.22
2018-06-22T00:53:11.792Z,22.19
2018-06-22T00:55:39.880Z,22.10
2018-06-22T00:58:07.323Z,22.04
2018-06-22T01:00:34.736Z,21.98
2018-06-22T01:03:02.142Z,21.89
2018-06-22T01:05:29.563Z,21.82
2018-06-22T01:07:56.991Z,21.79
2018-06-22T01:10:24.389Z,21.81
2018-06-22T01:12:51.864Z,21.87
2018-06-22T01:15:19.379Z,21.88
2018-06-22T01:17:46.836Z,21.81
2018-06-22T01:20:14.230Z,21.70
2018-06-22T01:22:42.066Z,21.64
2018-06-22T01:25:09.503Z,21.68
2018-06-22T01:27:37.124Z,21.58
2018-06-22T01:30:04.556Z,21.68
2018-06-22T01:32:32.013Z,21.73
2018-06-22T01:34:59.471Z,21.67
2018-06-22T01:37:26.963Z,21.61
2018-06-22T01:42:28.277Z,21.57
2018-06-22T01:44:55.678Z,21.47
2018-06-22T01:47:23.086Z,21.42
2018-06-22T01:49:50.543Z,21.46
2018-06-22T01:52:18.066Z,21.39
2018-06-22T01:54:45.556Z,21.39
2018-06-22T01:57:13.072Z,21.41
2018-06-22T01:59:40.527Z,21.32
2018-06-22T02:02:08.038Z,21.32
2018-06-22T02:04:35.533Z,21.26
2018-06-22T02:07:02.996Z,21.23
2018-06-22T02:09:30.413Z,21.13
2018-06-22T02:11:57.896Z,21.12
2018-06-22T02:14:25.341Z,20.99
2018-06-22T02:16:52.804Z,21.01
2018-06-22T02:19:20.243Z,21.03
2018-06-22T02:21:47.741Z,21.06
2018-06-22T02:24:15.155Z,21.07
2018-06-22T02:26:42.610Z,21.04
2018-06-22T02:29:10.161Z,21.04
2018-06-22T02:31:37.627Z,20.99
2018-06-22T02:34:05.081Z,20.95
2018-06-22T02:36:32.574Z,20.88
2018-06-22T02:39:00.013Z,20.89
2018-06-22T02:41:27.434Z,20.88
2018-06-22T02:43:54.872Z,20.87
2018-06-22T02:46:22.323Z,20.83
2018-06-22T02:48:50.147Z,20.78
2018-06-22T02:51:17.640Z,20.66
2018-06-22T02:53:45.075Z,20.62
2018-06-22T02:56:12.592Z,20.58
2018-06-22T02:58:40.113Z,20.54
2018-06-22T03:01:07.564Z,20.50
2018-06-22T03:03:35.017Z,20.47
2018-06-22T03:06:02.538Z,20.51
2018-06-22T03:08:30.091Z,20.44
2018-06-22T03:10:57.573Z,20.40
2018-06-22T03:13:24.991Z,20.33
2018-06-22T03:15:52.436Z,20.23
2018-06-22T03:18:19.867Z,20.25
2018-06-22T03:20:47.296Z,20.20
2018-06-22T03:23:14.763Z,20.16
2018-06-22T03:25:42.168Z,20.22
2018-06-22T03:28:09.668Z,20.19
2018-06-22T03:30:37.088Z,20.18
2018-06-22T03:33:04.538Z,20.27
2018-06-22T03:35:31.942Z,20.23
2018-06-22T03:37:59.423Z,20.17
2018-06-22T03:40:26.889Z,20.10
2018-06-22T03:42:54.383Z,20.04
2018-06-22T03:45:21.818Z,20.10
2018-06-22T03:47:49.294Z,20.05
2018-06-22T03:50:16.755Z,20.02
2018-06-22T03:52:44.361Z,20.03
2018-06-22T03:55:11.797Z,19.95
2018-06-22T03:57:39.244Z,19.98
2018-06-22T04:00:06.663Z,19.90
2018-06-22T04:02:34.115Z,19.90
2018-06-22T04:05:01.590Z,19.92
2018-06-22T04:07:29.172Z,19.92
2018-06-22T04:09:56.645Z,20.02
2018-06-22T04:12:24.164Z,20.06
2018-06-22T04:14:51.755Z,20.04
2018-06-22T04:17:19.253Z,20.08
2018-06-22T04:19:46.735Z,20.04
2018-06-22T04:22:14.180Z,20.00
2018-06-22T04:24:41.717Z,19.92
2018-06-22T04:27:09.139Z,19.85
2018-06-22T04:29:36.663Z,19.82
2018-06-22T04:32:04.200Z,19.92
2018-06-22T04:34:31.949Z,19.96
2018-06-22T04:36:59.384Z,20.06
2018-06-22T04:39:26.866Z,20.05
2018-06-22T04:41:54.317Z,20.06
2018-06-22T04:44:21.780Z,19.99
2018-06-22T04:46:49.256Z,19.98
2018-06-22T04:49:16.747Z,19.98
2018-06-22T04:51:44.352Z,19.95
2018-06-22T04:54:11.824Z,19.99
2018-06-22T04:56:39.291Z,20.02
2018-06-22T04:59:06.713Z,20.04
2018-06-22T05:01:34.211Z,20.05
2018-06-22T05:04:01.665Z,20.03
2018-06-22T05:06:29.113Z,20.01
2018-06-22T05:08:56.677Z,20.04
2018-06-22T05:11:24.177Z,20.10
2018-06-22T05:13:51.675Z,20.07
2018-06-22T05:16:19.081Z,20.15
2018-06-22T05:18:46.635Z,20.17
2018-06-22T05:21:14.052Z,20.17
2018-06-22T05:23:41.495Z,20.27
2018-06-22T05:26:08.923Z,20.29
2018-06-22T05:28:37.273Z,20.36
2018-06-22T05:31:04.740Z,20.39
2018-06-22T05:33:32.291Z,20.37
2018-06-22T05:35:59.816Z,20.30
2018-06-22T05:38:27.331Z,20.15
2018-06-22T05:40:54.951Z,20.24
2018-06-22T05:43:22.470Z,20.24
2018-06-22T05:45:49.995Z,20.09
2018-06-22T05:48:17.507Z,20.16
2018-06-22T05:50:45.207Z,20.20
2018-06-22T05:53:12.836Z,20.23
2018-06-22T05:55:40.708Z,20.34
2018-06-22T05:58:08.322Z,20.41
2018-06-22T06:00:35.736Z,20.26
2018-06-22T06:03:03.227Z,20.22
2018-06-22T06:05:30.679Z,20.20
2018-06-22T06:07:58.220Z,20.17
2018-06-22T06:10:25.669Z,20.29
2018-06-22T06:12:53.277Z,20.27
2018-06-22T06:15:20.759Z,20.29
2018-06-22T06:17:48.303Z,20.22
2018-06-22T06:20:15.747Z,20.17
2018-06-22T06:22:43.173Z,20.16
2018-06-22T06:25:10.620Z,20.07
2018-06-22T06:27:38.042Z,19.93
2018-06-22T06:30:05.481Z,20.00
2018-06-22T06:32:33.798Z,20.18
2018-06-22T06:35:01.258Z,20.25
2018-06-22T06:37:28.684Z,20.19
2018-06-22T06:39:56.146Z,20.21
2018-06-22T06:42:23.649Z,20.28
2018-06-22T06:44:51.151Z,20.35
2018-06-22T06:47:18.900Z,20.35
2018-06-22T06:49:46.423Z,20.54
2018-06-22T06:52:13.842Z,20.48
2018-06-22T06:54:41.328Z,20.68
2018-06-22T06:57:08.787Z,20.93
2018-06-22T06:59:37.150Z,20.64
2018-06-22T07:02:04.582Z,20.73
2018-06-22T07:04:32.140Z,20.91
2018-06-22T07:06:59.624Z,20.85
2018-06-22T07:09:27.075Z,20.87
2018-06-22T07:11:54.579Z,21.03
2018-06-22T07:14:22.068Z,21.48
2018-06-22T07:16:49.531Z,21.58
2018-06-22T07:19:17.015Z,21.42
2018-06-22T07:21:44.578Z,21.39
2018-06-22T07:24:12.124Z,21.43
2018-06-22T07:26:39.582Z,21.47
2018-06-22T07:29:07.019Z,21.36
2018-06-22T07:31:34.467Z,21.64
2018-06-22T07:34:01.913Z,21.53
2018-06-22T07:36:29.408Z,21.47
2018-06-22T07:38:56.894Z,21.50
2018-06-22T07:41:24.456Z,21.87
2018-06-22T07:43:52.002Z,22.12
2018-06-22T07:46:19.615Z,22.19
2018-06-22T07:48:47.069Z,22.37
2018-06-22T07:51:14.541Z,22.61
2018-06-22T07:53:42.006Z,22.95
2018-06-22T07:56:09.458Z,22.85
2018-06-22T07:58:36.971Z,22.80
2018-06-22T08:01:04.395Z,22.75
2018-06-22T08:03:31.925Z,22.73
2018-06-22T08:05:59.326Z,23.23
2018-06-22T08:08:27.041Z,23.30
2018-06-22T08:10:54.515Z,23.23
2018-06-22T08:13:23.004Z,23.35
2018-06-22T08:15:50.625Z,23.71
2018-06-22T08:18:18.133Z,23.71
2018-06-22T08:20:45.608Z,23.90
2018-06-22T08:23:13.055Z,24.05
2018-06-22T08:25:40.473Z,23.95
2018-06-22T08:28:07.939Z,23.84
2018-06-22T08:30:35.519Z,23.98
2018-06-22T08:33:03.044Z,24.13
2018-06-22T08:35:30.543Z,23.94
2018-06-22T08:37:57.974Z,23.90
2018-06-22T08:40:25.437Z,23.71
2018-06-22T08:42:52.990Z,23.71
2018-06-22T08:45:20.462Z,23.69
2018-06-22T08:47:47.876Z,23.94
2018-06-22T08:50:15.401Z,23.83
2018-06-22T08:52:42.889Z,23.86
2018-06-22T08:55:10.287Z,24.11
2018-06-22T08:57:37.723Z,23.97
2018-06-22T09:00:05.165Z,23.97
2018-06-22T09:02:32.651Z,23.96
2018-06-22T09:05:00.139Z,24.00
2018-06-22T09:07:27.622Z,23.74
2018-06-22T09:09:55.028Z,23.78
2018-06-22T09:12:22.469Z,23.62
2018-06-22T09:14:49.904Z,23.74
2018-06-22T09:17:17.334Z,24.07
2018-06-22T09:19:44.827Z,24.19
2018-06-22T09:22:12.243Z,24.30
2018-06-22T09:24:39.663Z,24.05
2018-06-22T09:27:07.111Z,24.13
2018-06-22T09:29:34.574Z,24.10
2018-06-22T09:32:02.010Z,24.28
2018-06-22T09:34:29.440Z,24.25
2018-06-22T09:36:56.916Z,24.06
2018-06-22T09:39:24.359Z,23.96
2018-06-22T09:41:51.825Z,24.21
2018-06-22T09:44:19.308Z,24.22
2018-06-22T09:46:46.779Z,24.37
2018-06-22T09:49:14.331Z,24.18
2018-06-22T09:51:41.788Z,24.25
2018-06-22T09:54:09.555Z,24.58
2018-06-22T09:56:37.006Z,24.54
2018-06-22T09:59:04.426Z,24.65
2018-06-22T10:01:31.897Z,24.74
2018-06-22T10:03:59.480Z,24.79
2018-06-22T10:06:26.969Z,24.65
2018-06-22T10:08:54.510Z,24.49
2018-06-22T10:11:22.035Z,24.68
2018-06-22T10:13:49.424Z,24.84
2018-06-22T10:16:16.933Z,24.70
2018-06-22T10:18:44.420Z,24.69
2018-06-22T10:21:11.909Z,24.88
2018-06-22T10:23:39.409Z,24.75
2018-06-22T10:26:06.932Z,24.72
2018-06-22T10:28:34.428Z,24.83
2018-06-22T10:31:01.855Z,24.98
2018-06-22T10:33:29.579Z,24.98
2018-06-22T10:35:57.016Z,25.11
2018-06-22T10:38:25.720Z,25.36
2018-06-22T10:40:53.216Z,25.51
2018-06-22T10:43:20.726Z,25.46
2018-06-22T10:45:48.200Z,25.31
2018-06-22T10:48:15.620Z,25.39
2018-06-22T10:50:43.155Z,25.22
2018-06-22T10:53:10.927Z,24.89
2018-06-22T10:55:38.416Z,24.79
2018-06-22T10:58:05.856Z,25.09
2018-06-22T11:00:33.411Z,25.35
2018-06-22T11:03:00.893Z,25.29
2018-06-22T11:05:28.318Z,25.33
2018-06-22T11:07:55.776Z,25.42
2018-06-22T11:10:23.258Z,25.41
2018-06-22T11:12:50.721Z,25.35
2018-06-22T11:15:18.350Z,25.33
2018-06-22T11:17:45.809Z,25.48
2018-06-22T11:20:13.249Z,25.59
2018-06-22T11:22:40.699Z,25.80
2018-06-22T11:25:08.177Z,25.74
2018-06-22T11:27:35.730Z,25.44
2018-06-22T11:30:03.172Z,25.56
2018-06-22T11:32:30.613Z,26.09
2018-06-22T11:34:58.174Z,26.42
2018-06-22T11:37:25.612Z,26.52
2018-06-22T11:39:53.072Z,26.11
2018-06-22T11:42:20.580Z,26.23
2018-06-22T11:44:48.032Z,26.59
2018-06-22T11:47:15.644Z,26.60
2018-06-22T11:49:43.116Z,26.66
2018-06-22T11:52:10.522Z,26.75
2018-06-22T11:54:38.020Z,26.64
2018-06-22T11:57:05.532Z,26.46
2018-06-22T11:59:32.969Z,26.69
2018-06-22T12:02:00.431Z,26.60
2018-06-22T12:04:27.932Z,26.94
2018-06-22T12:06:55.642Z,27.06
2018-06-22T12:09:23.096Z,27.23
2018-06-22T12:11:50.555Z,27.08
2018-06-22T12:14:18.763Z,27.22
2018-06-22T12:16:46.312Z,27.15
2018-06-22T12:19:14.009Z,27.08
2018-06-22T12:21:41.513Z,27.11
2018-06-22T12:24:08.959Z,27.01
2018-06-22T12:26:36.611Z,26.63
2018-06-22T12:29:04.137Z,26.74
2018-06-22T12:31:31.872Z,26.82
2018-06-22T12:33:59.351Z,27.00
2018-06-22T12:36:26.871Z,26.93
2018-06-22T12:38:54.344Z,26.72
2018-06-22T12:41:21.797Z,26.67
2018-06-22T12:43:49.243Z,26.75
2018-06-22T12:46:16.693Z,26.91
2018-06-22T12:48:44.144Z,27.25
2018-06-22T12:51:11.550Z,27.22
2018-06-22T12:53:39.086Z,27.28
2018-06-22T12:56:06.571Z,27.06
2018-06-22T12:58:33.966Z,26.89
2018-06-22T13:01:01.473Z,26.79
2018-06-22T13:03:28.932Z,26.80
2018-06-22T13:05:57.068Z,26.68
2018-06-22T13:08:24.641Z,26.83
2018-06-22T13:10:52.094Z,26.83
2018-06-22T13:13:19.514Z,26.91
2018-06-22T13:15:46.944Z,27.02
2018-06-22T13:18:14.355Z,27.05
2018-06-22T13:20:41.845Z,26.96
2018-06-22T13:23:09.324Z,26.92
2018-06-22T13:25:36.731Z,26.76
2018-06-22T13:28:04.276Z,26.88
2018-06-22T13:30:31.807Z,26.82
2018-06-22T13:32:59.300Z,26.70
2018-06-22T13:35:27.096Z,26.70
2018-06-22T13:37:54.559Z,26.62
2018-06-22T13:40:21.997Z,26.80
2018-06-22T13:42:49.468Z,26.48
2018-06-22T13:45:16.928Z,26.55
2018-06-22T13:47:44.397Z,26.61
2018-06-22T13:50:11.993Z,26.52
2018-06-22T13:52:39.604Z,26.55
2018-06-22T13:55:07.200Z,26.63
2018-06-22T13:57:34.652Z,26.64
2018-06-22T14:00:02.339Z,26.33
2018-06-22T14:02:29.783Z,26.56
2018-06-22T14:07:50.169Z,26.79
2018-06-22T14:10:17.698Z,26.53
2018-06-22T14:12:45.200Z,26.32
2018-06-22T14:15:12.794Z,26.32
2018-06-22T14:17:40.199Z,26.28
2018-06-22T14:20:07.710Z,26.27
2018-06-22T14:22:35.126Z,26.27
2018-06-22T14:25:02.585Z,26.30
2018-06-22T14:27:30.021Z,26.30
2018-06-22T14:29:57.520Z,26.15
2018-06-22T14:32:24.937Z,26.12
2018-06-22T14:34:52.628Z,26.29
2018-06-22T14:37:20.133Z,26.28
2018-06-22T14:39:47.619Z,26.32
2018-06-22T14:42:15.063Z,26.16
2018-06-22T14:44:42.708Z,26.10
2018-06-22T14:47:10.126Z,25.96
2018-06-22T14:49:37.820Z,26.10
2018-06-22T14:52:05.375Z,26.22
2018-06-22T14:57:43.682Z,26.00
2018-06-22T15:03:10.710Z,26.10
2018-06-22T15:08:32.325Z,26.26
2018-06-22T15:10:59.838Z,26.46
2018-06-22T15:13:27.462Z,26.16
2018-06-22T15:15:55.676Z,25.89
2018-06-22T15:18:23.310Z,25.87
2018-06-22T15:20:50.857Z,25.81
2018-06-22T15:23:18.375Z,25.67
2018-06-22T15:25:45.892Z,25.74
2018-06-22T15:28:13.375Z,25.68
2018-06-22T15:30:40.888Z,25.78
2018-06-22T15:33:08.910Z,25.52
2018-06-22T15:38:46.309Z,25.92
2018-06-22T15:44:20.877Z,25.85
2018-06-22T15:49:46.255Z,25.81
2018-06-22T15:55:06.775Z,25.80
2018-06-22T15:57:34.264Z,25.75
2018-06-22T16:00:01.924Z,25.53
2018-06-22T16:02:29.227Z,25.57
2018-06-22T16:04:56.805Z,25.42
2018-06-22T16:07:24.273Z,25.43
2018-06-22T16:09:51.776Z,25.37
2018-06-22T16:12:19.299Z,25.43
2018-06-22T16:14:46.762Z,25.31
2018-06-22T16:20:27.462Z,25.40
2018-06-22T16:23:11.873Z,25.41
2018-06-22T16:28:31.607Z,25.37
2018-06-22T16:30:59.109Z,25.31
2018-06-22T16:33:26.620Z,25.18
2018-06-22T16:35:54.250Z,25.11
2018-06-22T16:38:21.716Z,24.97
2018-06-22T16:40:49.220Z,24.96
2018-06-22T16:43:17.363Z,25.02
2018-06-22T16:45:44.867Z,24.97
2018-06-22T16:48:12.411Z,24.95
2018-06-22T16:50:40.073Z,24.95
2018-06-22T16:53:07.605Z,25.02
2018-06-22T16:55:35.049Z,25.06
2018-06-22T16:58:02.638Z,25.10
2018-06-22T17:00:30.107Z,25.09
2018-06-22T17:02:57.624Z,24.99
2018-06-22T17:05:25.151Z,25.03
2018-06-22T17:10:59.665Z,24.92
2018-06-22T17:13:42.053Z,24.97
2018-06-22T17:19:02.689Z,24.76
2018-06-22T17:21:30.558Z,24.75
2018-06-22T17:23:58.123Z,24.70
2018-06-22T17:26:25.601Z,24.73
2018-06-22T17:28:53.067Z,24.66
2018-06-22T17:31:20.606Z,24.54
2018-06-22T17:33:48.189Z,24.61
2018-06-22T17:36:15.629Z,24.55
2018-06-22T17:38:43.135Z,24.55
2018-06-22T17:41:10.689Z,24.46
2018-06-22T17:43:38.155Z,24.46
2018-06-22T17:46:05.728Z,24.37
2018-06-22T17:48:33.196Z,24.36
2018-06-22T17:51:00.664Z,24.32
2018-06-22T17:53:28.251Z,24.34
2018-06-22T17:55:55.701Z,24.22
2018-06-22T17:58:23.145Z,24.27
2018-06-22T18:03:53.255Z,24.22
2018-06-22T18:06:36.579Z,24.20
2018-06-22T18:09:04.225Z,24.11
2018-06-22T18:11:37.397Z,23.95
2018-06-22T18:14:04.987Z,23.96
2018-06-22T18:16:32.566Z,23.77
2018-06-22T18:19:00.120Z,23.61
2018-06-22T18:21:27.643Z,23.56
2018-06-22T18:23:55.141Z,23.57
2018-06-22T18:26:22.583Z,23.54
2018-06-22T18:28:50.052Z,23.46
2018-06-22T18:31:17.579Z,23.40
2018-06-22T18:33:45.042Z,23.37
2018-06-22T18:36:12.547Z,23.38
2018-06-22T18:38:39.982Z,23.30
2018-06-22T18:41:07.488Z,23.21
2018-06-22T18:43:35.115Z,23.03
2018-06-22T18:46:02.609Z,22.96
2018-06-22T18:48:30.273Z,22.85
2018-06-22T18:50:57.726Z,22.76
2018-06-22T18:56:33.092Z,22.86
2018-06-22T18:59:06.193Z,22.71
2018-06-22T19:04:26.811Z,22.51
2018-06-22T19:06:54.321Z,22.40
2018-06-22T19:09:21.828Z,22.32
2018-06-22T19:11:49.376Z,22.16
2018-06-22T19:14:16.739Z,22.14
2018-06-22T19:16:45.634Z,22.10
2018-06-22T19:19:13.882Z,21.99
2018-06-22T19:21:41.582Z,21.91
2018-06-22T19:24:09.095Z,21.81
2018-06-22T19:26:36.559Z,21.74
2018-06-22T19:29:04.034Z,21.71
2018-06-22T19:31:31.476Z,21.67
2018-06-22T19:33:58.963Z,21.74
2018-06-22T19:36:26.402Z,21.60
2018-06-22T19:38:53.923Z,21.53
2018-06-22T19:41:21.404Z,21.45
2018-06-22T19:43:48.856Z,21.43
2018-06-22T19:49:25.200Z,21.47
2018-06-22T19:54:47.105Z,21.53
2018-06-22T19:57:14.601Z,21.40
2018-06-22T19:59:42.084Z,21.30
2018-06-22T20:02:09.550Z,21.28
2018-06-22T20:04:37.055Z,21.31
2018-06-22T20:07:04.483Z,21.35
2018-06-22T20:09:31.980Z,21.19
2018-06-22T20:11:59.540Z,21.13
2018-06-22T20:14:27.008Z,21.08
2018-06-22T20:16:54.658Z,20.97
2018-06-22T20:19:22.105Z,20.99
2018-06-22T20:21:50.041Z,20.97
2018-06-22T20:24:17.758Z,20.98
2018-06-22T20:26:46.109Z,20.87
2018-06-22T20:29:13.539Z,20.75
2018-06-22T20:31:41.018Z,20.68
2018-06-22T20:34:08.488Z,20.66
2018-06-22T20:39:44.887Z,20.72
2018-06-22T20:45:14.148Z,20.45
2018-06-22T20:47:41.618Z,20.31
2018-06-22T20:53:02.019Z,20.26
2018-06-22T20:55:29.493Z,20.13
2018-06-22T20:57:56.968Z,20.00
2018-06-22T21:00:24.378Z,19.85
2018-06-22T21:02:51.878Z,19.80
2018-06-22T21:05:19.390Z,19.74
2018-06-22T21:07:46.798Z,19.76
2018-06-22T21:10:14.277Z,19.76
2018-06-22T21:12:41.791Z,19.68
2018-06-22T21:15:09.257Z,19.58
2018-06-22T21:17:36.846Z,19.54
2018-06-22T21:20:04.259Z,19.63
2018-06-22T21:22:31.767Z,19.69
2018-06-22T21:24:59.366Z,19.70
2018-06-22T21:27:26.843Z,19.65
2018-06-22T21:33:08.019Z,19.82
2018-06-22T21:38:44.353Z,19.81
2018-06-22T21:41:11.876Z,19.71
2018-06-22T21:43:39.373Z,19.62
2018-06-22T21:46:06.880Z,19.53
2018-06-22T21:48:34.304Z,19.50
2018-06-22T21:51:01.769Z,19.54
2018-06-22T21:53:29.292Z,19.44
2018-06-22T21:55:56.668Z,19.37
2018-06-22T21:58:24.133Z,19.30
2018-06-22T22:00:51.591Z,19.22
2018-06-22T22:03:18.983Z,19.22
2018-06-22T22:05:46.429Z,19.20
2018-06-22T22:08:13.841Z,19.19
2018-06-22T22:10:41.327Z,19.17
2018-06-22T22:13:08.844Z,19.05
2018-06-22T22:15:36.901Z,19.02
2018-06-22T22:18:04.355Z,18.94
2018-06-22T22:20:31.808Z,18.91
2018-06-22T22:22:59.261Z,18.82
2018-06-22T22:25:26.718Z,18.80
2018-06-22T22:27:54.782Z,18.76
2018-06-22T22:30:22.201Z,18.74
2018-06-22T22:32:50.440Z,18.74
2018-06-22T22:35:17.997Z,18.75
2018-06-22T22:37:45.520Z,18.70
2018-06-22T22:40:12.997Z,18.65
2018-06-22T22:42:40.415Z,18.57
2018-06-22T22:45:07.879Z,18.63
2018-06-22T22:47:35.371Z,18.59
2018-06-22T22:50:02.840Z,18.45
2018-06-22T22:52:30.304Z,18.40
2018-06-22T22:54:57.748Z,18.40
2018-06-22T22:57:25.158Z,18.42
2018-06-22T22:59:52.647Z,18.44
2018-06-22T23:02:20.169Z,18.42
2018-06-22T23:04:47.751Z,18.36
2018-06-22T23:07:15.186Z,18.34
2018-06-22T23:09:42.627Z,18.24
2018-06-22T23:12:10.030Z,18.24
2018-06-22T23:14:37.465Z,18.21
2018-06-22T23:17:04.936Z,18.20
2018-06-22T23:19:32.414Z,18.19
2018-06-22T23:21:59.862Z,18.14
2018-06-22T23:24:29.056Z,18.10
2018-06-22T23:26:56.579Z,18.05
2018-06-22T23:29:24.242Z,17.99
2018-06-22T23:31:51.731Z,18.01
2018-06-22T23:34:19.139Z,17.94
2018-06-22T23:36:46.545Z,17.95
2018-06-22T23:39:14.213Z,17.98
2018-06-22T23:41:41.950Z,17.98
2018-06-22T23:44:09.392Z,18.00
2018-06-22T23:46:36.891Z,17.99
2018-06-22T23:49:04.302Z,18.01
2018-06-22T23:51:31.807Z,17.98
2018-06-22T23:53:59.287Z,18.01
2018-06-22T23:56:26.718Z,17.86
2018-06-22T23:58:54.145Z,17.81
